createdAt,value
2022-11-16T00:00:36.179Z,101128.94
2022-11-16T00:04:00.947Z,101144.41
2022-11-16T00:07:23.081Z,101131.53
2022-11-16T00:10:45.179Z,101129.78
2022-11-16T00:14:09.137Z,101134.94
2022-11-16T00:17:31.252Z,101115.19
2022-11-16T00:20:53.510Z,101119.44
2022-11-16T00:24:16.648Z,101122.91
2022-11-16T00:27:38.566Z,101122.91
2022-11-16T00:31:03.197Z,101112.59
2022-11-16T00:34:26.065Z,101128.91
2022-11-16T00:37:48.062Z,101095.44
2022-11-16T00:41:10.721Z,101120.34
2022-11-16T00:44:33.095Z,101119.47
2022-11-16T00:48:00.425Z,101126.34
2022-11-16T00:51:22.625Z,101128.06
2022-11-16T00:54:44.415Z,101122.91
2022-11-16T00:58:06.796Z,101128.91
2022-11-16T01:01:29.077Z,101118.59
2022-11-16T01:04:52.582Z,101124.59
2022-11-16T01:08:14.998Z,101126.31
2022-11-16T01:11:54.397Z,101133.19
2022-11-16T01:15:17.992Z,101132.34
2022-11-16T01:18:40.097Z,101122.88
2022-11-16T01:22:03.829Z,101125.44
2022-11-16T01:25:26.110Z,101121.16
2022-11-16T01:28:48.039Z,101124.59
2022-11-16T01:32:10.596Z,101135.75
2022-11-16T01:35:32.523Z,101140.06
2022-11-16T01:38:56.092Z,101129.75
2022-11-16T01:42:19.870Z,101124.59
2022-11-16T01:45:43.277Z,101123.69
2022-11-16T01:49:08.353Z,101129.72
2022-11-16T01:52:34.210Z,101123.72
2022-11-16T01:55:57.543Z,101128.03
2022-11-16T01:59:20.236Z,101128.88
2022-11-16T02:02:43.157Z,101118.56
2022-11-16T02:06:35.491Z,101140.03
2022-11-16T02:10:10.813Z,101136.59
2022-11-16T02:13:45.651Z,101135.72
2022-11-16T02:17:18.026Z,101129.72
2022-11-16T02:21:09.683Z,101134.88
2022-11-16T02:24:44.888Z,101138.31
2022-11-16T02:28:28.601Z,101131.41
2022-11-16T02:31:59.529Z,101125.41
2022-11-16T02:35:28.494Z,101128.00
2022-11-16T02:38:55.798Z,101128.81
2022-11-16T02:42:23.087Z,101125.41
2022-11-16T02:45:50.220Z,101134.00
2022-11-16T02:49:18.964Z,101136.56
2022-11-16T02:52:41.157Z,101132.28
2022-11-16T02:56:02.869Z,101138.31
2022-11-16T02:59:37.337Z,101133.97
2022-11-16T03:03:12.316Z,101134.84
2022-11-16T03:06:41.726Z,101135.72
2022-11-16T03:10:03.975Z,101140.88
2022-11-16T03:13:27.484Z,101146.88
2022-11-16T03:16:52.613Z,101116.84
2022-11-16T03:20:17.767Z,101145.16
2022-11-16T03:23:41.472Z,101150.34
2022-11-16T03:27:10.066Z,101144.31
2022-11-16T03:30:35.397Z,101140.88
2022-11-16T03:34:01.888Z,101143.47
2022-11-16T03:37:25.507Z,101146.91
2022-11-16T03:40:51.434Z,101127.19
2022-11-16T03:44:16.176Z,101163.28
2022-11-16T03:47:38.058Z,101159.84
2022-11-16T03:51:00.313Z,101156.41
2022-11-16T03:54:22.123Z,101152.09
2022-11-16T03:57:45.431Z,101144.38
2022-11-16T04:01:07.660Z,101146.94
2022-11-16T04:04:46.954Z,101140.94
2022-11-16T04:08:30.687Z,101141.81
2022-11-16T04:12:10.144Z,101132.34
2022-11-16T04:15:50.634Z,101136.63
2022-11-16T04:19:29.794Z,101140.06
2022-11-16T04:23:13.512Z,101148.66
2022-11-16T04:26:50.319Z,101135.78
2022-11-16T04:30:13.070Z,101145.22
2022-11-16T04:34:04.961Z,101139.22
2022-11-16T04:37:44.149Z,101134.09
2022-11-16T04:41:28.998Z,101137.50
2022-11-16T04:45:08.283Z,101149.56
2022-11-16T04:48:30.336Z,101140.94
2022-11-16T04:51:53.583Z,101143.53
2022-11-16T04:55:15.741Z,101147.81
2022-11-16T04:58:37.595Z,101152.97
2022-11-16T05:02:11.734Z,101142.66
2022-11-16T05:05:33.240Z,101140.09
2022-11-16T05:08:56.242Z,101141.81
2022-11-16T05:12:19.995Z,101139.22
2022-11-16T05:15:42.070Z,101144.41
2022-11-16T05:19:21.376Z,101142.66
2022-11-16T05:22:43.600Z,101145.25
2022-11-16T05:26:07.252Z,101141.81
2022-11-16T05:29:32.232Z,101136.69
2022-11-16T05:32:54.077Z,101138.41
2022-11-16T05:36:16.178Z,101136.69
2022-11-16T05:39:39.192Z,101138.41
2022-11-16T05:43:02.946Z,101135.81
2022-11-16T05:46:25.814Z,101138.41
2022-11-16T05:49:47.610Z,101143.56
2022-11-16T05:53:09.715Z,101138.41
2022-11-16T05:56:32.032Z,101148.72
2022-11-16T05:59:55.306Z,101141.84
2022-11-16T06:03:17.172Z,101151.31
2022-11-16T06:06:39.539Z,101148.72
2022-11-16T06:10:01.658Z,101147.84
2022-11-16T06:13:24.106Z,101138.41
2022-11-16T06:16:47.414Z,101147.88
2022-11-16T06:20:10.343Z,101154.75
2022-11-16T06:23:32.024Z,101153.88
2022-11-16T06:26:54.161Z,101140.16
2022-11-16T06:30:16.983Z,101145.28
2022-11-16T06:33:40.086Z,101150.47
2022-11-16T06:37:02.137Z,101153.03
2022-11-16T06:40:23.994Z,101132.41
2022-11-16T06:43:46.026Z,101165.06
2022-11-16T06:47:07.966Z,101164.19
2022-11-16T06:50:30.991Z,101159.06
2022-11-16T06:53:52.790Z,101171.91
2022-11-16T06:57:14.570Z,101164.19
2022-11-16T07:00:36.670Z,101165.91
2022-11-16T07:03:58.801Z,101170.22
2022-11-16T07:07:22.289Z,101161.59
2022-11-16T07:10:44.399Z,101162.47
2022-11-16T07:14:06.055Z,101175.38
2022-11-16T07:17:28.313Z,101166.75
2022-11-16T07:20:50.390Z,101177.97
2022-11-16T07:24:14.020Z,101183.09
2022-11-16T07:27:36.247Z,101159.91
2022-11-16T07:31:02.812Z,101170.22
2022-11-16T07:34:24.698Z,101171.94
2022-11-16T07:37:46.763Z,101179.69
2022-11-16T07:41:12.426Z,101153.88
2022-11-16T07:44:34.293Z,101183.09
2022-11-16T07:47:56.371Z,101176.19
2022-11-16T07:51:19.722Z,101166.78
2022-11-16T07:54:41.798Z,101188.25
2022-11-16T07:58:05.363Z,101181.34
2022-11-16T08:01:26.934Z,101178.78
2022-11-16T08:04:49.096Z,101194.25
2022-11-16T08:08:10.725Z,101184.81
2022-11-16T08:11:32.669Z,101195.97
2022-11-16T08:14:56.126Z,101188.25
2022-11-16T08:18:17.818Z,101193.38
2022-11-16T08:21:39.767Z,101186.50
2022-11-16T08:25:02.258Z,101186.50
2022-11-16T08:28:24.362Z,101186.50
2022-11-16T08:31:48.360Z,101186.50
2022-11-16T08:35:10.617Z,101189.06
2022-11-16T08:38:32.935Z,101186.47
2022-11-16T08:41:54.785Z,101183.91
2022-11-16T08:45:17.956Z,101193.38
2022-11-16T08:48:41.535Z,101186.50
2022-11-16T08:52:03.701Z,101183.88
2022-11-16T08:55:28.379Z,101183.91
2022-11-16T08:58:55.275Z,101183.03
2022-11-16T09:02:25.511Z,101175.31
2022-11-16T09:05:48.905Z,101178.75
2022-11-16T09:09:10.904Z,101185.59
2022-11-16T09:12:33.005Z,101183.88
2022-11-16T09:15:58.786Z,101174.38
2022-11-16T09:19:21.120Z,101181.25
2022-11-16T09:22:44.447Z,101180.41
2022-11-16T09:26:07.344Z,101176.97
2022-11-16T09:29:29.222Z,101177.84
2022-11-16T09:32:51.343Z,101171.81
2022-11-16T09:36:13.327Z,101171.78
2022-11-16T09:39:38.347Z,101164.91
2022-11-16T09:43:07.986Z,101168.34
2022-11-16T09:46:32.976Z,101172.66
2022-11-16T09:50:02.718Z,101171.81
2022-11-16T09:53:32.870Z,101180.41
2022-11-16T09:57:01.291Z,101187.28
2022-11-16T10:00:27.012Z,101186.47
2022-11-16T10:03:53.858Z,101160.72
2022-11-16T10:07:18.199Z,101177.94
2022-11-16T10:10:45.831Z,101186.50
2022-11-16T10:14:25.817Z,101190.81
2022-11-16T10:18:07.576Z,101186.50
2022-11-16T10:21:45.588Z,101183.94
2022-11-16T10:25:16.656Z,101173.59
2022-11-16T10:29:06.223Z,101170.19
2022-11-16T10:32:37.498Z,101175.34
2022-11-16T10:36:00.432Z,101173.59
2022-11-16T10:39:23.702Z,101172.75
2022-11-16T10:42:49.424Z,101173.59
2022-11-16T10:46:18.934Z,101165.00
2022-11-16T10:49:51.220Z,101179.59
2022-11-16T10:53:16.221Z,101173.59
2022-11-16T10:56:40.213Z,101176.16
2022-11-16T11:00:35.369Z,101164.09
2022-11-16T11:03:58.493Z,101171.84
2022-11-16T11:07:32.836Z,101166.69
2022-11-16T12:57:49.251Z,101146.97
2022-11-16T13:01:19.173Z,101146.13
2022-11-16T13:04:46.544Z,101146.97
2022-11-16T13:08:16.187Z,101149.56
2022-11-16T13:11:40.984Z,101151.31
2022-11-16T13:15:06.200Z,101152.16
2022-11-16T13:18:30.555Z,101137.56
2022-11-16T13:21:59.991Z,101145.28
2022-11-16T13:25:25.814Z,101150.44
2022-11-16T13:28:56.370Z,101139.28
2022-11-16T13:32:26.456Z,101150.44
2022-11-16T13:35:48.548Z,101153.91
2022-11-16T13:39:21.465Z,101139.28
2022-11-16T13:42:58.677Z,101151.31
2022-11-16T13:46:48.798Z,101156.47
2022-11-16T13:50:05.806Z,101150.44
2022-11-16T13:57:24.729Z,101152.19
2022-11-16T14:00:57.843Z,101152.16
2022-11-16T14:04:57.009Z,101158.19
2022-11-16T14:08:54.726Z,101154.75
2022-11-16T14:12:56.118Z,101155.59
2022-11-16T14:16:48.428Z,101157.31
2022-11-16T14:20:17.147Z,101159.91
2022-11-16T14:24:10.285Z,101147.00
2022-11-16T14:27:40.031Z,101159.03
2022-11-16T14:31:11.224Z,101156.47
2022-11-16T14:34:43.326Z,101132.41
2022-11-16T14:38:08.771Z,101164.19
2022-11-16T14:41:30.854Z,101145.28
2022-11-16T14:45:01.858Z,101156.44
2022-11-16T14:48:26.275Z,101152.19
2022-11-16T14:51:55.075Z,101150.47
2022-11-16T14:55:20.834Z,101151.28
2022-11-16T14:58:52.318Z,101153.03
2022-11-16T15:02:19.209Z,101149.59
2022-11-16T15:05:41.496Z,101139.28
2022-11-16T15:09:06.759Z,101138.44
2022-11-16T15:12:46.043Z,101141.88
2022-11-16T15:16:11.788Z,101146.16
2022-11-16T15:19:33.564Z,101122.97
2022-11-16T15:22:58.279Z,101138.41
2022-11-16T15:26:23.475Z,101127.28
2022-11-16T15:29:45.315Z,101146.16
2022-11-16T15:33:11.803Z,101145.28
2022-11-16T15:36:40.160Z,101152.16
2022-11-16T15:40:03.549Z,101140.16
2022-11-16T15:43:32.727Z,101145.31
2022-11-16T15:46:57.481Z,101147.88
2022-11-16T15:50:20.044Z,101143.59
2022-11-16T15:53:43.568Z,101149.63
2022-11-16T15:57:09.752Z,101149.63
2022-11-16T16:00:36.557Z,101143.59
2022-11-16T16:04:01.660Z,101147.88
2022-11-16T16:07:39.856Z,101144.47
2022-11-16T16:11:09.910Z,101150.44
2022-11-16T16:14:32.192Z,101160.75
2022-11-16T16:17:56.167Z,101151.31
2022-11-16T16:21:18.939Z,101150.47
2022-11-16T16:24:44.556Z,101133.25
2022-11-16T16:28:07.517Z,101144.41
2022-11-16T21:21:45.963Z,101134.78
2022-11-16T21:25:08.553Z,101125.31
2022-11-16T21:28:30.636Z,101132.19
2022-11-16T21:31:52.398Z,101138.19
2022-11-16T21:35:14.876Z,101131.34
2022-11-16T21:38:38.696Z,101134.78
2022-11-16T21:42:00.823Z,101133.91
2022-11-16T21:45:22.860Z,101126.16
2022-11-16T21:48:47.322Z,101128.75
2022-11-16T21:52:09.224Z,101128.78
2022-11-16T21:55:35.533Z,101119.31
2022-11-16T21:58:57.290Z,101118.50
2022-11-16T22:02:19.074Z,101111.63
2022-11-16T22:05:59.045Z,101110.75
2022-11-16T22:09:20.639Z,101113.34
2022-11-16T22:12:44.273Z,101117.63
2022-11-16T22:16:07.949Z,101114.19
2022-11-16T22:19:30.171Z,101111.59
2022-11-16T22:22:52.336Z,101114.19
2022-11-16T22:26:15.172Z,101100.47
2022-11-16T22:29:38.788Z,101109.06
2022-11-16T22:33:00.859Z,101108.19
2022-11-16T22:36:22.996Z,101110.78
2022-11-16T22:39:48.229Z,101107.34
2022-11-16T22:43:10.527Z,101103.91
2022-11-16T22:46:34.024Z,101097.91
2022-11-16T22:49:55.872Z,101090.19
2022-11-16T22:53:18.095Z,101087.63
2022-11-16T22:56:40.541Z,101098.78
2022-11-16T23:00:03.183Z,101096.22
2022-11-16T23:03:26.751Z,101098.78
2022-11-16T23:06:49.494Z,101097.91
2022-11-16T23:10:11.915Z,101097.94
2022-11-16T23:13:59.755Z,101094.50
2022-11-16T23:17:22.096Z,101094.50
2022-11-16T23:21:03.555Z,101087.63
2022-11-16T23:24:43.337Z,101083.34
2022-11-16T23:28:08.183Z,101080.78
2022-11-16T23:31:30.183Z,101084.19
2022-11-16T23:34:52.322Z,101079.03
2022-11-16T23:38:16.043Z,101078.22
2022-11-16T23:41:57.719Z,101082.50
2022-11-16T23:45:20.710Z,101075.63
2022-11-16T23:48:42.775Z,101053.28
2022-11-16T23:52:05.703Z,101079.03
2022-11-16T23:55:29.559Z,101074.75
2022-11-16T23:58:51.364Z,101071.31
